Time;durP1;ratioP1;P1;durP2;ratioP2;P2;SDS_P1;SDS_P2;PMS_P1;PMS_P2;Temp;Humidity;BMP_temperature;BMP_pressure;BME280_temperature;BME280_humidity;BME280_pressure;Samples;Min_cycle;Max_cycle;Signal;HPM_P1;HPM_P2
2022/11/18 00:02:09;;;;;;;299.13;49.80;;;256.20;2252.80;;;;;;4975301;28;20081;-56
2022/11/18 00:04:34;;;;;;;296.63;47.88;;;256.10;2252.80;;;;;;4975559;28;20038;-54
2022/11/18 00:07:00;;;;;;;603.50;60.22;;;256.30;2252.80;;;;;;4975858;28;20026;-53
2022/11/18 00:09:25;;;;;;;527.17;54.28;;;256.40;2252.80;;;;;;4975180;28;20167;-55
2022/11/18 00:14:35;;;;;;;506.73;56.38;;;256.30;2252.80;;;;;;4977861;28;20157;-55
2022/11/18 00:17:03;;;;;;;492.25;54.75;;;256.10;2252.80;;;;;;4974591;28;20717;-56
2022/11/18 00:19:38;;;;;;;352.45;50.67;;;256.50;2252.80;;;;;;4955540;28;20070;-60
2022/11/18 00:22:05;;;;;;;532.15;60.03;;;256.40;2252.80;;;;;;4974896;28;20051;-53
2022/11/18 00:24:31;;;;;;;364.55;55.97;;;256.50;2252.80;;;;;;4974272;28;20117;-58
2022/11/18 00:26:57;;;;;;;304.73;55.85;;;256.60;2252.80;;;;;;4973640;28;20123;-57
2022/11/18 00:29:25;;;;;;;350.48;53.83;;;256.70;2252.80;;;;;;4972108;28;20568;-58
2022/11/18 00:31:51;;;;;;;239.75;50.50;;;256.80;2252.80;;;;;;4970496;28;20022;-58
2022/11/18 00:34:18;;;;;;;302.50;51.35;;;256.90;2252.80;;;;;;4973361;28;20479;-55
2022/11/18 00:36:44;;;;;;;266.55;48.90;;;281.60;2278.40;;;;;;4973543;28;20019;-56
2022/11/18 00:39:12;;;;;;;186.10;48.20;;;281.70;2278.40;;;;;;4973632;28;20027;-56
2022/11/18 00:44:22;;;;;;;144.60;45.47;;;281.80;2278.40;;;;;;4970034;28;20092;-56
2022/11/18 00:46:47;;;;;;;125.00;44.33;;;281.80;2278.40;;;;;;4994012;28;20241;-56
2022/11/18 00:49:13;;;;;;;148.07;39.25;;;282.00;2278.40;;;;;;4979769;28;20128;-58
2022/11/18 00:51:39;;;;;;;174.90;40.47;;;281.90;2278.40;;;;;;4955402;28;20034;-57
2022/11/18 00:54:04;;;;;;;140.30;38.33;;;281.90;2278.40;;;;;;4967658;28;20047;-58
2022/11/18 00:56:30;;;;;;;180.48;37.10;;;281.90;2278.40;;;;;;4976530;28;20042;-64
2022/11/18 00:58:56;;;;;;;178.73;38.20;;;281.80;2278.40;;;;;;4985809;28;20027;-62
2022/11/18 01:01:22;;;;;;;226.48;41.90;;;281.80;2278.40;;;;;;4997240;28;20046;-53
2022/11/18 01:03:47;;;;;;;242.88;40.38;;;281.60;2278.40;;;;;;4987650;28;20030;-53
2022/11/18 01:06:13;;;;;;;228.65;39.50;;;256.90;2252.80;;;;;;4975829;28;20090;-57
2022/11/18 01:08:39;;;;;;;272.98;43.80;;;256.90;2252.80;;;;;;4974166;28;20035;-57
2022/11/18 01:13:50;;;;;;;374.40;47.33;;;256.40;2252.80;;;;;;4980229;28;20041;-52
2022/11/18 01:16:22;;;;;;;329.83;45.67;;;256.50;2252.80;;;;;;4984509;28;20031;-53
2022/11/18 01:18:48;;;;;;;224.93;42.53;;;256.50;2252.80;;;;;;4973245;28;20038;-59
2022/11/18 01:21:14;;;;;;;291.42;43.92;;;256.40;2252.80;;;;;;4973254;28;20046;-59
2022/11/18 01:23:40;;;;;;;543.17;55.67;;;256.50;2252.80;;;;;;4973643;28;20022;-53
2022/11/18 01:26:08;;;;;;;550.10;56.50;;;256.10;2252.80;;;;;;4973420;28;20516;-57
2022/11/18 01:28:34;;;;;;;369.83;46.50;;;256.10;2252.80;;;;;;4974056;28;20035;-55
2022/11/18 01:31:09;;;;;;;548.25;50.42;;;256.30;2252.80;;;;;;4972499;28;20470;-53
2022/11/18 01:33:35;;;;;;;358.60;44.15;;;256.00;2252.80;;;;;;4969298;28;20039;-55
2022/11/18 01:36:00;;;;;;;315.92;45.47;;;256.10;2252.80;;;;;;4983531;28;20042;-54
2022/11/18 01:38:29;;;;;;;390.60;49.30;;;256.10;2252.80;;;;;;4990085;28;20026;-58
2022/11/18 01:40:55;;;;;;;392.67;50.78;;;256.00;2252.80;;;;;;4990950;28;20034;-53
2022/11/18 01:43:22;;;;;;;305.08;47.70;;;256.00;2252.80;;;;;;4990911;28;20025;-59
2022/11/18 01:45:50;;;;;;;293.25;49.05;;;256.10;2252.80;;;;;;4974005;28;20879;-54
2022/11/18 01:48:20;;;;;;;331.08;49.03;;;256.10;2252.80;;;;;;4970924;28;20050;-58
2022/11/18 01:50:50;;;;;;;260.23;47.28;;;256.10;2252.80;;;;;;4968953;28;20114;-54
2022/11/18 01:53:23;;;;;;;171.95;44.30;;;256.00;2252.80;;;;;;4970031;28;20051;-59
2022/11/18 01:55:53;;;;;;;164.65;41.90;;;256.00;2252.80;;;;;;4970327;28;20095;-60
2022/11/18 01:58:24;;;;;;;167.80;42.92;;;256.10;2252.80;;;;;;4970936;28;20400;-55
2022/11/18 02:00:50;;;;;;;208.57;45.97;;;256.10;2252.80;;;;;;4970997;28;20030;-53
2022/11/18 02:03:17;;;;;;;185.88;44.05;;;256.00;2252.80;;;;;;4970427;28;20070;-59
2022/11/18 02:05:46;;;;;;;140.07;43.88;;;256.00;2252.80;;;;;;4972931;28;20026;-60
2022/11/18 02:08:13;;;;;;;223.25;48.38;;;256.10;2252.80;;;;;;4980974;28;20077;-59
2022/11/18 02:10:38;;;;;;;170.02;44.42;;;231.30;2252.80;;;;;;4973248;28;20039;-53
2022/11/18 02:13:04;;;;;;;126.38;41.42;;;256.00;2252.80;;;;;;4989560;28;20051;-55
2022/11/18 02:15:43;;;;;;;141.30;40.63;;;231.30;2252.80;;;;;;4973179;28;20027;-57
2022/11/18 02:18:26;;;;;;;133.05;40.97;;;256.10;2252.80;;;;;;4973110;28;20493;-54
2022/11/18 02:20:55;;;;;;;102.47;39.55;;;256.10;2252.80;;;;;;4979615;28;20106;-54
2022/11/18 02:23:30;;;;;;;117.32;40.83;;;256.10;2252.80;;;;;;4986789;28;20038;-55
2022/11/18 02:26:13;;;;;;;100.28;37.22;;;256.10;2252.80;;;;;;4955301;28;20039;-56
2022/11/18 02:29:02;;;;;;;112.90;39.20;;;256.10;2252.80;;;;;;4972746;28;20027;-55
2022/11/18 02:31:58;;;;;;;108.45;37.67;;;256.00;2252.80;;;;;;4972470;28;20105;-53
2022/11/18 02:34:34;;;;;;;120.18;42.08;;;256.00;2252.80;;;;;;4970901;28;20154;-57
2022/11/18 02:37:14;;;;;;;119.13;40.55;;;256.00;2252.80;;;;;;4971825;28;20709;-54
2022/11/18 02:40:09;;;;;;;100.75;38.78;;;256.00;2252.80;;;;;;4972028;28;20039;-60
2022/11/18 02:42:36;;;;;;;;;;;231.20;2252.80;;;;;;4967161;28;20082;-54
2022/11/18 02:45:07;;;;;;;123.38;38.53;;;231.20;2252.80;;;;;;4967672;28;19917;-55
2022/11/18 02:47:35;;;;;;;133.70;40.30;;;231.20;2252.80;;;;;;4973466;28;20030;-52
2022/11/18 02:50:09;;;;;;;102.68;40.30;;;231.10;2252.80;;;;;;4973750;28;20743;-59
2022/11/18 02:52:37;;;;;;;155.25;45.58;;;231.00;2252.80;;;;;;4968379;28;20027;-56
2022/11/18 02:55:07;;;;;;;117.15;42.80;;;230.90;2252.80;;;;;;4973154;28;20050;-56
2022/11/18 02:57:35;;;;;;;121.28;43.85;;;230.80;2252.80;;;;;;4972577;28;20474;-59
2022/11/18 03:00:00;;;;;;;120.35;43.67;;;230.80;2252.80;;;;;;4978716;28;20026;-58
2022/11/18 03:02:26;;;;;;;136.23;49.15;;;230.80;2252.80;;;;;;4992311;28;20397;-54
2022/11/18 03:04:55;;;;;;;124.03;46.72;;;230.80;2252.80;;;;;;4992491;28;20077;-54
2022/11/18 03:07:24;;;;;;;118.90;46.15;;;230.80;2252.80;;;;;;4977919;28;20544;-57
2022/11/18 03:09:51;;;;;;;117.03;47.17;;;230.90;2252.80;;;;;;4979162;28;20121;-59
2022/11/18 03:12:17;;;;;;;125.15;55.30;;;230.90;2252.80;;;;;;4991902;28;20026;-60
2022/11/18 03:15:06;;;;;;;150.25;67.78;;;231.00;2252.80;;;;;;4973112;28;20389;-55
2022/11/18 03:17:43;;;;;;;132.25;58.67;;;231.00;2252.80;;;;;;4972599;28;20062;-56
2022/11/18 03:20:19;;;;;;;115.97;49.55;;;231.00;2252.80;;;;;;4973304;28;20089;-56
2022/11/18 03:22:59;;;;;;;145.48;69.22;;;231.00;2252.80;;;;;;4972778;28;20065;-55
2022/11/18 03:25:34;;;;;;;134.57;63.35;;;231.00;2252.80;;;;;;4971777;28;20058;-55
2022/11/18 03:28:13;;;;;;;124.80;52.67;;;231.10;2252.80;;;;;;4972648;28;20492;-53
2022/11/18 03:30:44;;;;;;;137.73;62.50;;;231.10;2252.80;;;;;;4972127;28;20047;-54
2022/11/18 03:33:16;;;;;;;120.53;55.95;;;231.20;2252.80;;;;;;4972684;28;20031;-55
2022/11/18 03:35:45;;;;;;;95.18;42.17;;;231.20;2252.80;;;;;;4971696;28;20113;-55
2022/11/18 03:38:16;;;;;;;78.00;36.97;;;256.00;2252.80;;;;;;4972592;28;20031;-52
2022/11/18 03:40:49;;;;;;;86.00;37.75;;;256.10;2252.80;;;;;;4988056;28;20038;-55
2022/11/18 03:43:20;;;;;;;114.00;55.00;;;256.10;2252.80;;;;;;4991526;28;20069;-57
2022/11/18 03:45:51;;;;;;;117.60;54.50;;;256.10;2252.80;;;;;;4986562;28;20078;-54
2022/11/18 03:48:20;;;;;;;119.10;58.42;;;256.20;2252.80;;;;;;4973059;28;20027;-54
2022/11/18 03:51:00;;;;;;;78.90;37.10;;;256.20;2252.80;;;;;;4972184;28;20027;-53
2022/11/18 03:53:31;;;;;;;120.47;61.60;;;256.30;2252.80;;;;;;4972474;28;20042;-54
2022/11/18 03:56:04;;;;;;;134.45;67.50;;;256.40;2252.80;;;;;;4972082;28;20099;-54
2022/11/18 03:58:37;;;;;;;115.60;57.08;;;256.20;2252.80;;;;;;4972456;28;20038;-53
2022/11/18 04:01:18;;;;;;;107.00;50.42;;;256.30;2252.80;;;;;;4972017;28;20031;-57
2022/11/18 04:03:44;;;;;;;88.60;40.58;;;256.20;2252.80;;;;;;4971601;28;20516;-58
2022/11/18 04:06:28;;;;;;;99.68;47.78;;;256.30;2252.80;;;;;;4972821;28;20023;-54
2022/11/18 04:08:59;;;;;;;124.45;59.20;;;256.40;2252.80;;;;;;4958693;28;20121;-54
2022/11/18 04:14:25;;;;;;;124.25;63.40;;;256.40;2252.80;;;;;;4990009;28;20092;-55
2022/11/18 04:16:52;;;;;;;68.57;34.05;;;256.80;2252.80;;;;;;4974525;28;20023;-53
2022/11/18 04:19:18;;;;;;;62.85;31.48;;;281.70;2278.40;;;;;;4991138;28;20045;-53
2022/11/18 04:21:45;;;;;;;68.10;31.75;;;281.90;2278.40;;;;;;4975033;28;20038;-53
2022/11/18 04:24:11;;;;;;;62.13;31.33;;;281.80;2278.40;;;;;;4966934;28;20045;-53
2022/11/18 04:26:36;;;;;;;64.57;31.95;;;281.80;2278.40;;;;;;4967090;28;20031;-54
2022/11/18 04:29:02;;;;;;;57.28;30.52;;;281.80;2278.40;;;;;;4969097;28;20453;-54
2022/11/18 04:31:28;;;;;;;60.00;29.33;;;281.90;2278.40;;;;;;4966645;28;20033;-55
2022/11/18 04:33:54;;;;;;;61.58;29.13;;;281.90;2278.40;;;;;;4967274;28;20114;-52
2022/11/18 04:36:19;;;;;;;60.28;29.73;;;281.90;2278.40;;;;;;4967894;28;20422;-53
2022/11/18 04:38:45;;;;;;;55.95;28.75;;;281.90;2278.40;;;;;;4967589;28;20440;-55
2022/11/18 04:41:11;;;;;;;56.83;28.90;;;282.10;2278.40;;;;;;4967608;28;20814;-53
2022/11/18 04:43:36;;;;;;;49.13;27.13;;;282.10;2278.40;;;;;;4967611;28;20519;-52
2022/11/18 04:46:02;;;;;;;51.67;27.40;;;282.10;2278.40;;;;;;4968188;28;20095;-54
2022/11/18 04:48:28;;;;;;;56.85;28.42;;;282.00;2278.40;;;;;;4971473;28;20496;-53
2022/11/18 04:50:56;;;;;;;56.38;28.45;;;281.90;2278.40;;;;;;4969858;28;20117;-54
2022/11/18 04:53:22;;;;;;;58.03;29.10;;;281.80;2278.40;;;;;;4970525;28;20070;-53
2022/11/18 04:55:47;;;;;;;58.47;29.00;;;281.80;2278.40;;;;;;4970523;28;20102;-55
2022/11/18 04:58:13;;;;;;;53.53;27.50;;;281.80;2278.40;;;;;;4970299;28;20508;-53
2022/11/18 05:00:39;;;;;;;59.72;29.65;;;281.80;2278.40;;;;;;4969655;28;20109;-54
2022/11/18 05:03:04;;;;;;;57.80;28.55;;;281.70;2278.40;;;;;;4982178;28;20025;-52
2022/11/18 05:05:30;;;;;;;52.42;28.70;;;281.90;2278.40;;;;;;4987615;28;20130;-53
2022/11/18 05:07:56;;;;;;;51.65;27.08;;;282.00;2278.40;;;;;;4994804;28;20460;-54
2022/11/18 05:10:21;;;;;;;56.92;29.67;;;282.10;2278.40;;;;;;4980870;28;20030;-55
2022/11/18 05:12:51;;;;;;;59.65;30.50;;;282.10;2278.40;;;;;;4976443;28;20030;-54
2022/11/18 05:15:18;;;;;;;54.83;29.02;;;282.10;2278.40;;;;;;4978550;28;20041;-53
2022/11/18 05:17:44;;;;;;;53.40;27.95;;;282.10;2278.40;;;;;;4975613;28;20038;-53
2022/11/18 05:20:10;;;;;;;58.15;30.15;;;282.00;2278.40;;;;;;4975477;28;20023;-57
2022/11/18 05:22:36;;;;;;;64.72;31.77;;;281.90;2278.40;;;;;;4975634;28;20106;-53
2022/11/18 05:25:02;;;;;;;60.28;30.75;;;281.70;2278.40;;;;;;4973566;28;21026;-54
2022/11/18 05:27:27;;;;;;;63.83;30.83;;;281.80;2278.40;;;;;;4972412;28;20034;-58
2022/11/18 05:29:53;;;;;;;53.67;28.15;;;281.80;2278.40;;;;;;4976002;28;20023;-56
2022/11/18 05:32:19;;;;;;;55.75;29.15;;;281.80;2278.40;;;;;;4973749;28;20066;-57
2022/11/18 05:34:44;;;;;;;56.03;28.30;;;281.90;2278.40;;;;;;4978100;28;20385;-55
2022/11/18 05:37:10;;;;;;;47.55;25.63;;;281.90;2278.40;;;;;;4974071;28;20077;-56
2022/11/18 05:39:36;;;;;;;46.92;24.83;;;281.90;2278.40;;;;;;4973999;28;20090;-56
2022/11/18 05:44:46;;;;;;;47.10;24.85;;;281.90;2278.40;;;;;;4955381;29;20090;-58
2022/11/18 05:47:12;;;;;;;49.33;25.38;;;281.90;2278.40;;;;;;4963055;28;20039;-56
2022/11/18 05:49:38;;;;;;;48.70;25.75;;;281.80;2278.40;;;;;;4982908;28;20027;-54
2022/11/18 05:52:04;;;;;;;50.33;25.27;;;281.70;2278.40;;;;;;4990545;28;20045;-55
2022/11/18 05:54:31;;;;;;;49.20;25.90;;;281.80;2278.40;;;;;;4981414;28;20030;-57
2022/11/18 05:56:56;;;;;;;51.40;26.45;;;281.70;2278.40;;;;;;4993369;28;20030;-59
2022/11/18 05:59:22;;;;;;;51.22;27.25;;;281.70;2278.40;;;;;;4976792;28;20034;-57
2022/11/18 06:02:15;;;;;;;47.35;25.02;;;281.70;2278.40;;;;;;4985405;28;20030;-56
2022/11/18 06:04:52;;;;;;;51.10;25.83;;;281.70;2278.40;;;;;;4888941;29;20052;-56
2022/11/18 06:07:22;;;;;;;49.30;28.25;;;281.70;2278.40;;;;;;4911944;29;20263;-57
2022/11/18 06:09:53;;;;;;;62.17;35.95;;;281.80;2278.40;;;;;;4911896;29;20726;-53
2022/11/18 06:12:22;;;;;;;55.75;31.42;;;282.00;2278.40;;;;;;4892077;29;20033;-54
2022/11/18 06:14:55;;;;;;;64.82;32.25;;;282.10;2278.40;;;;;;4883929;29;20487;-54
2022/11/18 06:17:25;;;;;;;51.05;27.30;;;282.30;2278.40;;;;;;4874695;29;20064;-58
2022/11/18 06:19:51;;;;;;;54.10;29.77;;;282.30;2278.40;;;;;;4896018;29;20029;-58
2022/11/18 06:22:17;;;;;;;56.65;31.08;;;282.40;2278.40;;;;;;4897000;29;20109;-57
2022/11/18 06:24:43;;;;;;;59.17;33.47;;;282.40;2278.40;;;;;;4903653;29;20119;-57
2022/11/18 06:27:10;;;;;;;66.80;36.00;;;282.50;2278.40;;;;;;4918595;29;20036;-59
2022/11/18 06:29:35;;;;;;;54.20;29.88;;;282.50;2278.40;;;;;;4913051;29;20534;-55
2022/11/18 06:32:01;;;;;;;68.88;36.03;;;282.50;2278.40;;;;;;4910142;29;20047;-56
2022/11/18 06:34:27;;;;;;;64.78;34.30;;;282.50;2278.40;;;;;;4912666;29;20055;-59
2022/11/18 06:36:52;;;;;;;71.65;35.25;;;307.30;2304.00;;;;;;4910533;29;20032;-58
2022/11/18 06:39:18;;;;;;;71.72;36.58;;;307.30;2304.00;;;;;;4911442;29;20024;-57
2022/11/18 06:41:44;;;;;;;61.28;32.88;;;307.20;2304.00;;;;;;4949581;28;20043;-55
2022/11/18 06:44:13;;;;;;;53.60;30.40;;;307.30;2304.00;;;;;;4971022;28;20034;-56
2022/11/18 06:46:54;;;;;;;48.03;27.63;;;307.30;2304.00;;;;;;4971474;28;20094;-59
2022/11/18 06:49:20;;;;;;;50.00;27.27;;;307.20;2304.00;;;;;;4970544;28;20089;-56
2022/11/18 06:51:46;;;;;;;47.60;28.48;;;282.50;2278.40;;;;;;4969823;28;20018;-59
2022/11/18 06:54:11;;;;;;;47.55;28.88;;;282.50;2278.40;;;;;;4968007;28;20039;-57
2022/11/18 06:56:37;;;;;;;48.65;27.35;;;307.20;2304.00;;;;;;4977016;28;20034;-60
2022/11/18 06:59:03;;;;;;;46.45;28.15;;;307.20;2304.00;;;;;;4983391;28;20030;-56
2022/11/18 07:01:32;;;;;;;66.57;36.17;;;307.30;2304.00;;;;;;4977017;28;20026;-59
2022/11/18 07:03:59;;;;;;;51.67;30.10;;;307.30;2304.00;;;;;;4975514;28;20034;-59
2022/11/18 07:06:27;;;;;;;52.33;29.30;;;307.40;2304.00;;;;;;4971675;28;20027;-57
2022/11/18 07:08:54;;;;;;;63.70;37.38;;;307.30;2304.00;;;;;;4976547;28;20039;-58
2022/11/18 07:11:23;;;;;;;63.03;36.33;;;307.30;2304.00;;;;;;4976027;28;20121;-55
2022/11/18 07:13:49;;;;;;;57.10;34.03;;;307.40;2304.00;;;;;;4983169;28;20043;-59
2022/11/18 07:16:18;;;;;;;87.80;59.38;;;307.50;2304.00;;;;;;4984859;28;20547;-60
2022/11/18 07:18:46;;;;;;;71.68;44.10;;;307.40;2304.00;;;;;;4987313;28;20033;-58
2022/11/18 07:21:16;;;;;;;55.80;26.10;;;307.30;2304.00;;;;;;4982287;28;20038;-55
2022/11/18 07:23:43;;;;;;;40.65;22.33;;;307.30;2304.00;;;;;;4975300;28;20848;-57
2022/11/18 07:26:09;;;;;;;39.25;22.70;;;307.20;2304.00;;;;;;4976181;28;20702;-58
2022/11/18 07:28:35;;;;;;;42.42;23.77;;;307.20;2304.00;;;;;;4978362;28;20026;-53
2022/11/18 07:31:11;;;;;;;56.25;29.80;;;307.20;2304.00;;;;;;4976000;28;21694;-56
2022/11/18 07:33:37;;;;;;;45.05;29.35;;;282.50;2278.40;;;;;;4975093;28;20038;-59
2022/11/18 07:36:11;;;;;;;37.47;23.80;;;307.20;2304.00;;;;;;4976162;28;20082;-52
2022/11/18 07:38:37;;;;;;;39.78;28.10;;;307.20;2304.00;;;;;;4975875;28;20085;-54
2022/11/18 07:41:05;;;;;;;41.38;27.65;;;307.20;2304.00;;;;;;4977896;28;20132;-56
2022/11/18 07:43:33;;;;;;;40.67;25.95;;;307.30;2304.00;;;;;;4981032;28;20506;-55
2022/11/18 07:46:19;;;;;;;32.10;19.38;;;307.20;2304.00;;;;;;4956923;28;20027;-57
2022/11/18 07:48:46;;;;;;;29.00;17.08;;;307.30;2304.00;;;;;;4969806;28;20034;-60
2022/11/18 07:51:14;;;;;;;30.70;18.25;;;307.30;2304.00;;;;;;4978933;28;20078;-53
2022/11/18 07:53:41;;;;;;;25.45;15.95;;;307.30;2304.00;;;;;;4978241;28;20038;-55
2022/11/18 07:56:07;;;;;;;24.35;14.70;;;307.30;2304.00;;;;;;4982827;28;20109;-59
2022/11/18 07:58:33;;;;;;;28.95;17.58;;;307.40;2304.00;;;;;;4978298;28;20041;-55
2022/11/18 08:01:16;;;;;;;23.35;13.75;;;307.40;2304.00;;;;;;4975060;28;20084;-59
2022/11/18 08:03:42;;;;;;;112.03;61.03;;;307.60;2304.00;;;;;;4991055;28;20030;-59
2022/11/18 08:06:09;;;;;;;49.28;30.20;;;307.70;2304.00;;;;;;4983054;28;20023;-59
2022/11/18 08:08:36;;;;;;;108.53;72.30;;;307.70;2304.00;;;;;;4977179;28;20034;-59
2022/11/18 08:11:05;;;;;;;66.03;44.95;;;307.70;2304.00;;;;;;4975848;28;20081;-58
2022/11/18 08:13:31;;;;;;;49.95;34.47;;;307.80;2304.00;;;;;;4980957;28;20408;-58
2022/11/18 08:15:57;;;;;;;85.07;55.05;;;307.90;2304.00;;;;;;4976128;28;20056;-59
2022/11/18 08:18:23;;;;;;;46.72;30.15;;;308.00;2304.00;;;;;;4973918;28;20121;-53
2022/11/18 08:20:49;;;;;;;72.53;45.95;;;308.10;2304.00;;;;;;4974822;28;20034;-57
2022/11/18 08:23:15;;;;;;;;;;;332.90;2329.60;;;;;;4926928;28;1475113;-59
2022/11/18 08:25:42;;;;;;;;;;;332.80;2329.60;;;;;;4981553;28;19909;-52
2022/11/18 08:28:08;;;;;;;;;;;332.80;2329.60;;;;;;4980060;28;19913;-58
2022/11/18 08:30:34;;;;;;;;;;;308.10;2304.00;;;;;;4979864;28;19914;-56
2022/11/18 08:32:59;;;;;;;;;;;307.90;2304.00;;;;;;4979807;28;19913;-54
2022/11/18 08:35:25;;;;;;;;;;;307.80;2304.00;;;;;;4980546;28;19921;-59
2022/11/18 08:37:51;;;;;;;;;;;307.60;2304.00;;;;;;4979403;28;19918;-58
2022/11/18 08:40:16;;;;;;;;;;;307.50;2304.00;;;;;;4977669;28;19917;-59
2022/11/18 08:42:42;;;;;;;;;;;307.40;2304.00;;;;;;4981780;28;19918;-56
2022/11/18 08:45:08;;;;;;;;;;;307.40;2304.00;;;;;;4986045;28;20016;-59
2022/11/18 08:47:34;;;;;;;;;;;307.50;2304.00;;;;;;4985076;28;20048;-57
2022/11/18 08:49:59;;;;;;;;;;;307.60;2304.00;;;;;;4985558;28;20030;-57
2022/11/18 08:52:25;;;;;;;;;;;307.50;2304.00;;;;;;4985321;28;19910;-59
2022/11/18 08:54:50;;;;;;;;;;;307.50;2304.00;;;;;;4971802;28;20324;-61
2022/11/18 08:57:16;;;;;;;;;;;307.50;2304.00;;;;;;4975075;28;19950;-61
2022/11/18 08:59:41;;;;;;;;;;;307.60;2304.00;;;;;;4972530;28;19910;-57
2022/11/18 09:02:14;;;;;;;;;;;307.80;2304.00;;;;;;4981285;28;19993;-64
2022/11/18 09:04:40;;;;;;;;;;;307.90;2304.00;;;;;;4973872;28;20326;-65
2022/11/18 09:07:06;;;;;;;;;;;308.00;2304.00;;;;;;4976677;28;19910;-61
2022/11/18 09:09:31;;;;;;;;;;;308.10;2304.00;;;;;;4983739;28;19917;-61
2022/11/18 09:11:57;;;;;;;;;;;308.10;2304.00;;;;;;4967660;28;19910;-61
2022/11/18 09:14:22;;;;;;;;;;;333.00;2329.60;;;;;;4979857;28;20284;-66
2022/11/18 09:16:48;;;;;;;;;;;332.90;2329.60;;;;;;4979299;28;20308;-65
2022/11/18 09:19:14;;;;;;;;;;;332.90;2329.60;;;;;;4977924;28;20004;-63
2022/11/18 09:21:40;;;;;;;;;;;332.80;2329.60;;;;;;4980741;28;19910;-59
2022/11/18 09:24:06;;;;;;;;;;;332.80;2329.60;;;;;;4984999;28;19918;-71
2022/11/18 09:26:32;;;;;;;;;;;332.90;2329.60;;;;;;4979217;28;19910;-54
2022/11/18 09:28:57;;;;;;;;;;;333.00;2329.60;;;;;;4981728;28;19981;-65
2022/11/18 09:31:23;;;;;;;;;;;333.10;2329.60;;;;;;4982168;28;19921;-61
2022/11/18 09:33:49;;;;;;;;;;;333.10;2329.60;;;;;;4985063;28;19918;-61
2022/11/18 09:36:22;;;;;;;;;;;333.30;2329.60;;;;;;4982179;28;20008;-71
2022/11/18 09:38:47;;;;;;;;;;;333.20;2329.60;;;;;;4982137;28;19917;-63
2022/11/18 09:41:32;;;;;;;;;;;333.20;2329.60;;;;;;4981530;28;19913;-57
2022/11/18 09:44:20;;;;;;;23.60;14.90;;;333.20;2329.60;;;;;;4986385;28;24078;-59
2022/11/18 09:47:14;;;;;;;26.05;17.10;;;333.30;2329.60;;;;;;4978086;28;20038;-62
2022/11/18 09:49:42;;;;;;;50.00;32.17;;;333.30;2329.60;;;;;;4980317;28;20121;-60
2022/11/18 09:52:25;;;;;;;49.75;34.30;;;333.20;2329.60;;;;;;4980951;28;20026;-70
2022/11/18 09:54:51;;;;;;;96.45;56.88;;;333.30;2329.60;;;;;;4982793;28;20513;-63
2022/11/18 09:57:25;;;;;;;23.90;17.05;;;333.30;2329.60;;;;;;4984892;28;20026;-66
2022/11/18 09:59:51;;;;;;;47.65;30.83;;;333.40;2329.60;;;;;;4983452;28;20038;-63
2022/11/18 10:02:42;;;;;;;23.75;16.48;;;333.40;2329.60;;;;;;4988093;28;20126;-60
2022/11/18 10:05:36;;;;;;;38.72;26.98;;;333.60;2329.60;;;;;;4980371;28;20030;-62
2022/11/18 10:08:22;;;;;;;31.85;20.95;;;333.60;2329.60;;;;;;4969466;28;20035;-65
2022/11/18 10:11:05;;;;;;;33.28;22.33;;;333.20;2329.60;;;;;;4976124;28;20085;-62
2022/11/18 10:13:47;;;;;;;51.53;34.85;;;333.20;2329.60;;;;;;4973643;28;20054;-62
2022/11/18 10:16:34;;;;;;;41.70;27.60;;;333.00;2329.60;;;;;;4984437;28;20067;-56
2022/11/18 10:19:15;;;;;;;24.15;17.17;;;332.80;2329.60;;;;;;4976875;28;20485;-64
2022/11/18 10:22:12;;;;;;;36.67;26.60;;;332.80;2329.60;;;;;;4992247;28;20042;-66
2022/11/18 10:24:44;;;;;;;28.80;19.95;;;308.10;2304.00;;;;;;4978302;28;20480;-64
2022/11/18 10:27:12;;;;;;;52.60;34.33;;;308.10;2304.00;;;;;;4983805;28;20038;-64
2022/11/18 10:29:38;;;;;;;35.60;23.27;;;308.00;2304.00;;;;;;4982242;28;20062;-62
2022/11/18 10:32:13;;;;;;;50.75;34.65;;;332.90;2329.60;;;;;;4990357;28;20519;-64
2022/11/18 10:34:48;;;;;;;56.97;37.13;;;308.10;2304.00;;;;;;4981590;28;20047;-64
2022/11/18 10:37:36;;;;;;;49.00;31.90;;;308.10;2304.00;;;;;;4969450;28;20041;-66
2022/11/18 10:40:04;;;;;;;215.73;167.25;;;332.90;2329.60;;;;;;4966582;28;20031;-61
2022/11/18 10:42:47;;;;;;;55.65;33.72;;;333.30;2329.60;;;;;;4988879;28;20823;-63
2022/11/18 10:45:18;;;;;;;74.97;45.80;;;333.10;2329.60;;;;;;4992166;28;20025;-68
2022/11/18 10:47:55;;;;;;;71.88;41.10;;;333.10;2329.60;;;;;;4990958;28;20023;-62
2022/11/18 10:50:39;;;;;;;93.53;56.97;;;333.10;2329.60;;;;;;4992982;28;20568;-63
2022/11/18 10:53:25;;;;;;;70.38;46.08;;;333.20;2329.60;;;;;;4982212;28;20097;-61
2022/11/18 10:56:01;;;;;;;77.10;45.00;;;333.10;2329.60;;;;;;4970577;28;20105;-60
2022/11/18 10:58:34;;;;;;;90.47;52.80;;;333.30;2329.60;;;;;;4981595;28;20117;-57
2022/11/18 11:01:26;;;;;;;37.22;25.92;;;333.30;2329.60;;;;;;4986574;28;20077;-52
2022/11/18 11:03:59;;;;;;;43.33;28.73;;;333.40;2329.60;;;;;;4985693;28;20029;-59
2022/11/18 11:06:51;;;;;;;42.60;27.85;;;333.70;2329.60;;;;;;4965815;28;20080;-59
2022/11/18 11:09:29;;;;;;;75.00;43.80;;;333.40;2329.60;;;;;;4967408;28;20035;-63
2022/11/18 11:12:01;;;;;;;49.35;34.80;;;333.30;2329.60;;;;;;4970583;28;20559;-63
2022/11/18 11:14:52;;;;;;;42.10;28.27;;;333.20;2329.60;;;;;;4972834;28;20039;-56
2022/11/18 11:17:20;;;;;;;41.33;27.73;;;333.10;2329.60;;;;;;4970071;28;20126;-73
2022/11/18 11:19:54;;;;;;;35.58;23.58;;;333.10;2329.60;;;;;;4972295;28;20019;-56
2022/11/18 11:22:20;;;;;;;32.60;22.58;;;333.00;2329.60;;;;;;4971688;28;20058;-54
2022/11/18 11:24:46;;;;;;;34.67;23.27;;;333.00;2329.60;;;;;;4971822;28;20493;-65
2022/11/18 11:27:30;;;;;;;36.90;25.88;;;333.10;2329.60;;;;;;4969772;28;20042;-52
2022/11/18 11:30:11;;;;;;;41.40;29.25;;;332.90;2329.60;;;;;;4970687;28;20122;-63
2022/11/18 11:32:56;;;;;;;41.72;28.83;;;332.80;2329.60;;;;;;4970887;28;20030;-54
2022/11/18 11:35:32;;;;;;;37.22;26.25;;;308.10;2304.00;;;;;;4975582;28;20085;-52
2022/11/18 11:38:05;;;;;;;37.45;24.63;;;308.00;2304.00;;;;;;4990297;28;20150;-52
2022/11/18 11:40:30;;;;;;;55.42;34.97;;;308.10;2304.00;;;;;;4990979;28;20022;-54
2022/11/18 11:43:10;;;;;;;83.90;45.75;;;308.10;2304.00;;;;;;4983664;28;20045;-66
2022/11/18 11:45:58;;;;;;;95.97;50.28;;;308.10;2304.00;;;;;;4969112;28;20026;-55
2022/11/18 11:48:45;;;;;;;78.20;52.22;;;332.90;2329.60;;;;;;4909059;29;20051;-55
2022/11/18 11:51:24;;;;;;;75.05;43.65;;;332.90;2329.60;;;;;;4874210;29;20495;-57
2022/11/18 11:54:14;;;;;;;182.40;94.90;;;332.90;2329.60;;;;;;4884320;29;20048;-53
2022/11/18 11:56:57;;;;;;;101.93;55.97;;;332.90;2329.60;;;;;;4895807;29;20025;-56
2022/11/18 12:00:04;;;;;;;59.70;36.22;;;332.80;2329.60;;;;;;4876869;29;20097;-54
2022/11/18 12:02:45;;;;;;;80.38;54.15;;;332.80;2329.60;;;;;;4840270;29;20151;-56
2022/11/18 12:05:16;;;;;;;43.58;28.33;;;333.00;2329.60;;;;;;4840142;29;20032;-56
2022/11/18 12:08:10;;;;;;;57.72;40.10;;;333.00;2329.60;;;;;;4841815;29;20050;-53
2022/11/18 12:11:04;;;;;;;77.30;50.85;;;333.00;2329.60;;;;;;4840188;29;20117;-63
2022/11/18 12:13:42;;;;;;;;;;;333.00;2329.60;;;;;;4839891;29;20042;-61
2022/11/18 12:16:32;;;;;;;126.82;81.00;;;333.10;2329.60;;;;;;4828732;29;20256;-53
2022/11/18 12:19:09;;;;;;;109.13;68.97;;;332.90;2329.60;;;;;;4840665;29;20072;-55
2022/11/18 12:21:46;;;;;;;81.25;50.60;;;332.90;2329.60;;;;;;4840042;29;20117;-62
2022/11/18 12:24:37;;;;;;;66.43;42.08;;;332.80;2329.60;;;;;;4826863;29;20125;-57
2022/11/18 12:27:11;;;;;;;104.72;68.90;;;332.80;2329.60;;;;;;4916652;29;20040;-56
2022/11/18 12:29:54;;;;;;;96.13;62.30;;;332.90;2329.60;;;;;;4913112;29;20020;-66
2022/11/18 12:32:28;;;;;;;93.93;49.70;;;333.00;2329.60;;;;;;4924126;28;20131;-59
2022/11/18 12:35:12;;;;;;;72.10;40.08;;;332.90;2329.60;;;;;;4984590;28;20050;-56
2022/11/18 12:37:49;;;;;;;109.03;64.73;;;332.90;2329.60;;;;;;4980517;28;20367;-53
2022/11/18 12:40:39;;;;;;;57.70;30.83;;;332.80;2329.60;;;;;;4982669;28;20053;-53